ADDS METAR Data INFO
IDs: Format: Raw Decoded Include TAF

Data at: 1158 UTC 23 Jun 2018

KGIF 231153Z AUTO 25005KT 9SM CLR 27/25 A3003 RMK AO2 SLP166 T02670250 10272 20256 53013
KGIF 231053Z AUTO 23005KT 7SM CLR 26/25 A3001 RMK AO2 SLP160 T02560250
KGIF 230953Z AUTO 00000KT 10SM CLR 26/25 A2999 RMK AO2 SLP154 T02560250
KGIF 230853Z AUTO 00000KT 10SM CLR 26/25 A2999 RMK AO2 SLP153 T02560250 55006
KGIF 230753Z AUTO 16003KT 10SM CLR 26/25 A2999 RMK AO2 SLP152 T02610250
KGIF 230653Z AUTO 20003KT 10SM CLR 26/24 A3000 RMK AO2 SLP155 T02610244
KGIF 230613Z AUTO 00000KT 10SM SCT022 27/24 A3000 RMK AO2 T02670239
KGIF 230604Z AUTO 00000KT 10SM BKN022 27/24 A3001 RMK AO2 T02720239
KGIF 230553Z AUTO 00000KT 10SM SCT022 27/24 A3001 RMK AO2 SLP159 T02670239 10300 20267 50004
KGIF 230453Z AUTO 00000KT 10SM CLR 27/24 A3002 RMK AO2 SLP161 T02670239 403390250
KGIF 230353Z AUTO 26003KT 10SM CLR 28/24 A3000 RMK AO2 SLP157 T02780239
KGIF 230253Z AUTO 24004KT 10SM CLR 28/24 A3000 RMK AO2 SLP155 T02780244 53011
KGIF 230153Z AUTO 28005KT 10SM CLR 29/24 A2999 RMK AO2 SLP151 T02890239
KGIF 230053Z AUTO 28004KT 10SM CLR 29/24 A2997 RMK AO2 SLP147 T02890244
KGIF 222353Z AUTO 30005KT 10SM FEW090 30/24 A2997 RMK AO2 SLP145 T03000239 10339 20289 53002
KGIF 222253Z AUTO 30005KT 10SM CLR 31/24 A2994 RMK AO2 LTG DSNT E AND SE SLP137 T03060239
KGIF 222153Z AUTO 27009KT 10SM CLR 29/22 A2994 RMK AO2 LTG DSNT ALQDS SLP137 T02890217
KGIF 222053Z AUTO 33011KT 10SM SCT044 29/23 A2996 RMK AO2 LTG DSNT ALQDS SLP142 T02940228 55011
KGIF 222019Z AUTO 27008KT 10SM FEW075 33/23 A2994 RMK AO2 LTG DSNT ALQDS T03330228
KGIF 222004Z AUTO 23009KT 10SM VCTS FEW042 SCT075 33/20 A2996 RMK AO2 LTG DSNT N AND S AND NW T03280200
KGIF 221953Z AUTO 25010KT 10SM FEW042 33/23 A2995 RMK AO2 LTG DSNT ALQDS SLP139 T03280233
KGIF 221853Z AUTO 28006KT 10SM FEW037 33/21 A2997 RMK AO2 SLP146 T03280211
KGIF 221753Z AUTO 26007KT 10SM CLR 32/23 A2999 RMK AO2 LTG DSNT NE SLP153 T03220233 10322 20261 58008
KGIF 221653Z AUTO 29007KT 10SM FEW049 32/23 A3001 RMK AO2 SLP158 T03170233
KGIF 221640Z AUTO 24008KT 10SM SCT047 31/24 A3001 RMK AO2 T03060239
KGIF 221553Z AUTO 28005KT 10SM VCTS CLR 32/23 A3001 RMK AO2 LTG DSNT NW SLP159 T03170228
KGIF 221536Z AUTO 28007KT 10SM VCTS FEW032 31/23 A3001 RMK AO2 LTG DSNT SW AND W T03110228
KGIF 221453Z AUTO 30006KT 10SM FEW023 31/24 A3002 RMK AO2 SLP162 T03060239 51004
KGIF 221353Z AUTO 29008KT 10SM CLR 29/25 A3001 RMK AO2 SLP161 T02940250
KGIF 221253Z AUTO 28006KT 10SM CLR 27/24 A3001 RMK AO2 SLP161 T02720244
KGIF 221153Z AUTO 23006KT 10SM CLR 26/24 A3000 RMK AO2 SLP157 70006 T02610244 10261 20250 53021
KGIF 221053Z AUTO 23004KT 10SM CLR 26/24 A2998 RMK AO2 SLP148 T02560244
KGIF 220953Z AUTO 23004KT 10SM CLR 26/24 A2996 RMK AO2 SLP142 T02560244
KGIF 220853Z AUTO 22003KT 10SM CLR 26/24 A2994 RMK AO2 SLP137 T02560244 55005
KGIF 220753Z AUTO 22005KT 10SM CLR 26/24 A2993 RMK AO2 SLP134 T02560244
KGIF 220653Z AUTO 20004KT 10SM CLR 26/24 A2994 RMK AO2 SLP137 T02560244
KGIF 220553Z AUTO 22005KT 10SM CLR 26/24 A2996 RMK AO2 SLP142 T02610244 10294 20256 58006
KGIF 220453Z AUTO 20004KT 10SM CLR 26/24 A2998 RMK AO2 SLP149 T02560239 403170256
KGIF 220353Z AUTO 27004KT 10SM FEW120 27/24 A2998 RMK AO2 SLP150 T02670239
KGIF 220253Z AUTO 29004KT 10SM CLR 26/23 A2997 RMK AO2 SLP147 T02610233 51011
KGIF 220153Z AUTO 21004KT 10SM CLR 26/23 A2997 RMK AO2 SLP147 T02610228
KGIF 220053Z AUTO 16010KT 10SM CLR 27/23 A2996 RMK AO2 LTG DSNT S AND SW SLP142 T02720233